sensor_id;sensor_type;location;lat;lon;timestamp;pressure;altitude;pressure_sealevel;temperature;humidity
70982;BME280;58640;51.320;9.456;2023-02-10T00:01:00;101148.97;;;-0.60;75.75
70982;BME280;58640;51.320;9.456;2023-02-10T00:03:26;101139.06;;;-0.55;75.74
70982;BME280;58640;51.320;9.456;2023-02-10T00:05:51;101147.69;;;-0.50;75.73
70982;BME280;58640;51.320;9.456;2023-02-10T00:08:16;101164.91;;;-0.41;76.01
70982;BME280;58640;51.320;9.456;2023-02-10T00:10:42;101158.59;;;-0.59;76.20
70982;BME280;58640;51.320;9.456;2023-02-10T00:13:07;101156.50;;;-0.51;76.46
70982;BME280;58640;51.320;9.456;2023-02-10T00:15:32;101156.38;;;-0.48;75.55
70982;BME280;58640;51.320;9.456;2023-02-10T00:17:58;101152.44;;;-0.38;75.82
70982;BME280;58640;51.320;9.456;2023-02-10T00:20:23;101159.56;;;-0.40;75.54
70982;BME280;58640;51.320;9.456;2023-02-10T00:22:48;101152.97;;;-0.30;75.40
70982;BME280;58640;51.320;9.456;2023-02-10T00:25:14;101158.38;;;-0.33;75.64
70982;BME280;58640;51.320;9.456;2023-02-10T00:27:39;101162.25;;;-0.41;76.35
70982;BME280;58640;51.320;9.456;2023-02-10T00:30:04;101170.00;;;-0.37;75.98
70982;BME280;58640;51.320;9.456;2023-02-10T00:32:30;101169.03;;;-0.34;76.48
70982;BME280;58640;51.320;9.456;2023-02-10T00:34:55;101180.69;;;-0.40;77.10
70982;BME280;58640;51.320;9.456;2023-02-10T00:37:20;101182.75;;;-0.46;77.04
70982;BME280;58640;51.320;9.456;2023-02-10T00:39:46;101174.28;;;-0.54;77.45
70982;BME280;58640;51.320;9.456;2023-02-10T00:42:11;101183.41;;;-0.41;76.59
70982;BME280;58640;51.320;9.456;2023-02-10T00:44:36;101181.56;;;-0.39;76.73
70982;BME280;58640;51.320;9.456;2023-02-10T00:47:02;101183.34;;;-0.40;76.88
70982;BME280;58640;51.320;9.456;2023-02-10T00:49:27;101182.66;;;-0.45;77.56
70982;BME280;58640;51.320;9.456;2023-02-10T00:51:52;101187.78;;;-0.40;77.07
70982;BME280;58640;51.320;9.456;2023-02-10T00:54:18;101191.13;;;-0.37;76.44
70982;BME280;58640;51.320;9.456;2023-02-10T00:56:43;101183.69;;;-0.47;77.49
70982;BME280;58640;51.320;9.456;2023-02-10T00:59:12;101193.31;;;-0.46;77.96
70982;BME280;58640;51.320;9.456;2023-02-10T01:01:38;101197.69;;;-0.45;77.48
70982;BME280;58640;51.320;9.456;2023-02-10T01:04:04;101201.97;;;-0.43;78.06
70982;BME280;58640;51.320;9.456;2023-02-10T01:06:29;101201.19;;;-0.45;78.11
70982;BME280;58640;51.320;9.456;2023-02-10T01:08:54;101199.28;;;-0.41;77.79
70982;BME280;58640;51.320;9.456;2023-02-10T01:11:20;101192.75;;;-0.53;78.94
70982;BME280;58640;51.320;9.456;2023-02-10T01:13:45;101196.03;;;-0.48;78.52
70982;BME280;58640;51.320;9.456;2023-02-10T01:16:13;101201.91;;;-0.41;78.54
70982;BME280;58640;51.320;9.456;2023-02-10T01:18:40;101202.25;;;-0.29;78.02
70982;BME280;58640;51.320;9.456;2023-02-10T01:21:11;101206.09;;;-0.36;78.07
70982;BME280;58640;51.320;9.456;2023-02-10T01:23:37;101203.13;;;-0.28;78.44
70982;BME280;58640;51.320;9.456;2023-02-10T01:26:03;101209.84;;;-0.41;79.02
70982;BME280;58640;51.320;9.456;2023-02-10T01:28:28;101204.81;;;-0.27;78.89
70982;BME280;58640;51.320;9.456;2023-02-10T01:30:54;101219.91;;;-0.29;78.62
70982;BME280;58640;51.320;9.456;2023-02-10T01:33:19;101216.88;;;-0.40;79.94
70982;BME280;58640;51.320;9.456;2023-02-10T01:35:44;101217.91;;;-0.44;79.87
70982;BME280;58640;51.320;9.456;2023-02-10T01:38:09;101223.38;;;-0.49;80.12
70982;BME280;58640;51.320;9.456;2023-02-10T01:40:35;101216.94;;;-0.42;79.63
70982;BME280;58640;51.320;9.456;2023-02-10T01:43:00;101220.88;;;-0.32;79.41
70982;BME280;58640;51.320;9.456;2023-02-10T01:45:32;101217.00;;;-0.23;78.89
70982;BME280;58640;51.320;9.456;2023-02-10T01:47:59;101216.59;;;-0.34;78.88
70982;BME280;58640;51.320;9.456;2023-02-10T01:50:31;101206.47;;;-0.45;79.35
70982;BME280;58640;51.320;9.456;2023-02-10T01:53:00;101213.03;;;-0.33;79.01
70982;BME280;58640;51.320;9.456;2023-02-10T01:55:29;101207.53;;;-0.49;79.59
70982;BME280;58640;51.320;9.456;2023-02-10T01:57:58;101210.78;;;-0.42;78.85
70982;BME280;58640;51.320;9.456;2023-02-10T02:00:25;101213.28;;;-0.39;78.63
70982;BME280;58640;51.320;9.456;2023-02-10T02:02:50;101212.13;;;-0.32;78.15
70982;BME280;58640;51.320;9.456;2023-02-10T02:05:37;101211.31;;;-0.34;77.78
70982;BME280;58640;51.320;9.456;2023-02-10T02:08:09;101208.94;;;-0.40;78.51
70982;BME280;58640;51.320;9.456;2023-02-10T02:16:38;101224.28;;;-0.28;77.89
70982;BME280;58640;51.320;9.456;2023-02-10T02:21:39;101210.13;;;-0.27;77.15
70982;BME280;58640;51.320;9.456;2023-02-10T02:32:22;101202.78;;;-0.21;76.77
70982;BME280;58640;51.320;9.456;2023-02-10T02:35:00;101203.84;;;-0.25;76.60
70982;BME280;58640;51.320;9.456;2023-02-10T02:37:36;101202.44;;;-0.33;76.98
70982;BME280;58640;51.320;9.456;2023-02-10T02:40:03;101202.84;;;-0.22;77.11
70982;BME280;58640;51.320;9.456;2023-02-10T02:42:31;101197.53;;;-0.01;76.46
70982;BME280;58640;51.320;9.456;2023-02-10T02:45:05;101203.84;;;-0.05;76.31
70982;BME280;58640;51.320;9.456;2023-02-10T02:55:50;101208.13;;;-0.22;76.75
70982;BME280;58640;51.320;9.456;2023-02-10T03:01:04;101200.16;;;-0.21;76.60
70982;BME280;58640;51.320;9.456;2023-02-10T03:03:33;101207.09;;;-0.18;76.99
70982;BME280;58640;51.320;9.456;2023-02-10T03:06:00;101200.88;;;-0.17;76.58
70982;BME280;58640;51.320;9.456;2023-02-10T03:08:27;101207.25;;;-0.21;76.93
70982;BME280;58640;51.320;9.456;2023-02-10T03:10:53;101211.91;;;-0.08;76.33
70982;BME280;58640;51.320;9.456;2023-02-10T03:13:18;101214.69;;;-0.11;76.35
70982;BME280;58640;51.320;9.456;2023-02-10T03:15:43;101221.91;;;-0.14;76.73
70982;BME280;58640;51.320;9.456;2023-02-10T03:18:09;101215.03;;;-0.18;77.17
70982;BME280;58640;51.320;9.456;2023-02-10T03:20:34;101226.41;;;0.04;76.04
70982;BME280;58640;51.320;9.456;2023-02-10T03:23:00;101224.31;;;-0.08;76.75
70982;BME280;58640;51.320;9.456;2023-02-10T03:25:25;101215.50;;;-0.09;76.28
70982;BME280;58640;51.320;9.456;2023-02-10T03:27:50;101224.25;;;-0.07;76.44
70982;BME280;58640;51.320;9.456;2023-02-10T03:30:15;101210.34;;;-0.12;76.55
70982;BME280;58640;51.320;9.456;2023-02-10T03:32:41;101213.97;;;-0.14;76.61
70982;BME280;58640;51.320;9.456;2023-02-10T03:35:06;101224.94;;;-0.03;76.44
70982;BME280;58640;51.320;9.456;2023-02-10T03:37:32;101232.34;;;-0.11;76.23
70982;BME280;58640;51.320;9.456;2023-02-10T03:39:57;101235.53;;;0.17;76.01
70982;BME280;58640;51.320;9.456;2023-02-10T03:42:22;101241.16;;;0.10;75.50
70982;BME280;58640;51.320;9.456;2023-02-10T03:44:48;101240.44;;;0.06;75.76
70982;BME280;58640;51.320;9.456;2023-02-10T03:47:13;101239.97;;;0.17;75.70
70982;BME280;58640;51.320;9.456;2023-02-10T03:49:38;101237.41;;;-0.05;76.61
70982;BME280;58640;51.320;9.456;2023-02-10T03:52:04;101221.31;;;-0.01;76.30
70982;BME280;58640;51.320;9.456;2023-02-10T03:54:29;101228.94;;;0.27;75.13
70982;BME280;58640;51.320;9.456;2023-02-10T03:56:56;101235.66;;;-0.06;76.67
70982;BME280;58640;51.320;9.456;2023-02-10T03:59:21;101229.25;;;-0.01;76.04
70982;BME280;58640;51.320;9.456;2023-02-10T04:01:47;101219.66;;;-0.03;76.02
70982;BME280;58640;51.320;9.456;2023-02-10T04:04:13;101223.09;;;-0.01;76.30
70982;BME280;58640;51.320;9.456;2023-02-10T04:06:38;101221.53;;;-0.05;76.71
70982;BME280;58640;51.320;9.456;2023-02-10T04:09:03;101221.41;;;-0.02;76.82
70982;BME280;58640;51.320;9.456;2023-02-10T04:11:29;101221.72;;;0.11;76.35
70982;BME280;58640;51.320;9.456;2023-02-10T04:13:54;101230.19;;;0.19;75.69
70982;BME280;58640;51.320;9.456;2023-02-10T04:16:20;101220.31;;;0.02;76.33
70982;BME280;58640;51.320;9.456;2023-02-10T04:18:47;101226.72;;;0.17;76.08
70982;BME280;58640;51.320;9.456;2023-02-10T04:21:13;101224.88;;;-0.02;76.40
70982;BME280;58640;51.320;9.456;2023-02-10T04:23:38;101226.09;;;-0.09;76.91
70982;BME280;58640;51.320;9.456;2023-02-10T04:26:04;101225.59;;;0.02;76.57
70982;BME280;58640;51.320;9.456;2023-02-10T04:28:29;101227.59;;;-0.03;76.75
70982;BME280;58640;51.320;9.456;2023-02-10T04:30:57;101227.66;;;0.16;76.29
70982;BME280;58640;51.320;9.456;2023-02-10T04:33:23;101227.94;;;0.10;76.32
70982;BME280;58640;51.320;9.456;2023-02-10T04:35:53;101228.78;;;-0.10;76.89
70982;BME280;58640;51.320;9.456;2023-02-10T04:38:19;101243.00;;;-0.13;76.89
70982;BME280;58640;51.320;9.456;2023-02-10T04:40:44;101239.38;;;-0.10;76.54
70982;BME280;58640;51.320;9.456;2023-02-10T04:43:11;101232.53;;;-0.16;77.17
70982;BME280;58640;51.320;9.456;2023-02-10T04:45:37;101238.09;;;-0.22;77.89
70982;BME280;58640;51.320;9.456;2023-02-10T04:48:02;101246.75;;;-0.18;77.58
70982;BME280;58640;51.320;9.456;2023-02-10T04:50:28;101250.72;;;-0.28;78.58
70982;BME280;58640;51.320;9.456;2023-02-10T04:52:53;101249.00;;;-0.29;78.32
70982;BME280;58640;51.320;9.456;2023-02-10T04:55:19;101254.16;;;-0.06;77.13
70982;BME280;58640;51.320;9.456;2023-02-10T04:57:44;101253.97;;;-0.22;78.13
70982;BME280;58640;51.320;9.456;2023-02-10T05:00:10;101249.16;;;-0.12;77.80
70982;BME280;58640;51.320;9.456;2023-02-10T05:02:36;101252.53;;;-0.09;77.15
70982;BME280;58640;51.320;9.456;2023-02-10T05:05:01;101254.78;;;0.00;76.89
70982;BME280;58640;51.320;9.456;2023-02-10T05:07:26;101252.06;;;-0.18;77.63
70982;BME280;58640;51.320;9.456;2023-02-10T05:09:52;101247.56;;;-0.16;77.99
70982;BME280;58640;51.320;9.456;2023-02-10T05:12:17;101243.13;;;-0.16;77.82
70982;BME280;58640;51.320;9.456;2023-02-10T05:14:42;101250.91;;;-0.13;77.81
70982;BME280;58640;51.320;9.456;2023-02-10T05:17:08;101248.53;;;-0.19;78.18
70982;BME280;58640;51.320;9.456;2023-02-10T05:19:33;101250.97;;;-0.34;78.65
70982;BME280;58640;51.320;9.456;2023-02-10T05:21:58;101248.94;;;-0.49;79.45
70982;BME280;58640;51.320;9.456;2023-02-10T05:24:24;101251.59;;;-0.71;80.48
70982;BME280;58640;51.320;9.456;2023-02-10T05:26:49;101243.31;;;-0.62;79.97
70982;BME280;58640;51.320;9.456;2023-02-10T05:29:14;101241.59;;;-0.63;80.22
70982;BME280;58640;51.320;9.456;2023-02-10T05:31:40;101238.16;;;-0.65;79.89
70982;BME280;58640;51.320;9.456;2023-02-10T05:34:05;101238.94;;;-0.63;80.18
70982;BME280;58640;51.320;9.456;2023-02-10T05:36:30;101242.69;;;-0.90;81.90
70982;BME280;58640;51.320;9.456;2023-02-10T05:38:56;101245.75;;;-0.79;80.84
70982;BME280;58640;51.320;9.456;2023-02-10T05:41:40;101243.50;;;-0.88;81.71
70982;BME280;58640;51.320;9.456;2023-02-10T05:44:05;101242.88;;;-0.94;82.05
70982;BME280;58640;51.320;9.456;2023-02-10T05:46:30;101245.56;;;-0.96;82.40
70982;BME280;58640;51.320;9.456;2023-02-10T05:48:56;101248.31;;;-0.99;82.25
70982;BME280;58640;51.320;9.456;2023-02-10T05:51:21;101250.34;;;-1.05;82.31
70982;BME280;58640;51.320;9.456;2023-02-10T05:53:46;101245.84;;;-1.03;82.66
70982;BME280;58640;51.320;9.456;2023-02-10T05:56:12;101240.38;;;-0.99;82.35
70982;BME280;58640;51.320;9.456;2023-02-10T05:58:37;101248.69;;;-1.08;82.95
70982;BME280;58640;51.320;9.456;2023-02-10T06:01:06;101257.84;;;-1.18;83.11
70982;BME280;58640;51.320;9.456;2023-02-10T06:03:32;101265.50;;;-1.10;83.40
70982;BME280;58640;51.320;9.456;2023-02-10T06:05:58;101267.06;;;-1.28;83.76
70982;BME280;58640;51.320;9.456;2023-02-10T06:08:24;101270.78;;;-1.33;84.75
70982;BME280;58640;51.320;9.456;2023-02-10T06:10:49;101270.25;;;-1.43;85.05
70982;BME280;58640;51.320;9.456;2023-02-10T06:13:14;101270.31;;;-1.44;84.85
70982;BME280;58640;51.320;9.456;2023-02-10T06:15:40;101269.25;;;-1.39;84.79
70982;BME280;58640;51.320;9.456;2023-02-10T06:18:05;101272.59;;;-1.35;85.00
70982;BME280;58640;51.320;9.456;2023-02-10T06:20:30;101276.41;;;-1.42;84.55
70982;BME280;58640;51.320;9.456;2023-02-10T06:22:55;101289.47;;;-1.39;84.42
70982;BME280;58640;51.320;9.456;2023-02-10T06:25:21;101297.97;;;-1.08;83.06
70982;BME280;58640;51.320;9.456;2023-02-10T06:27:46;101302.78;;;-1.19;83.00
70982;BME280;58640;51.320;9.456;2023-02-10T06:30:12;101309.34;;;-1.06;83.16
70982;BME280;58640;51.320;9.456;2023-02-10T06:32:37;101309.00;;;-1.20;83.33
70982;BME280;58640;51.320;9.456;2023-02-10T06:35:03;101303.66;;;-1.19;82.71
70982;BME280;58640;51.320;9.456;2023-02-10T06:37:28;101313.03;;;-1.10;82.70
70982;BME280;58640;51.320;9.456;2023-02-10T06:39:54;101307.34;;;-1.23;83.08
70982;BME280;58640;51.320;9.456;2023-02-10T06:42:19;101313.13;;;-1.36;84.47
70982;BME280;58640;51.320;9.456;2023-02-10T06:44:45;101311.00;;;-1.52;84.77
70982;BME280;58640;51.320;9.456;2023-02-10T06:47:10;101312.06;;;-1.56;85.34
70982;BME280;58640;51.320;9.456;2023-02-10T06:49:35;101314.31;;;-1.45;85.30
70982;BME280;58640;51.320;9.456;2023-02-10T06:52:01;101318.88;;;-1.25;84.14
70982;BME280;58640;51.320;9.456;2023-02-10T06:54:28;101321.13;;;-1.15;83.76
70982;BME280;58640;51.320;9.456;2023-02-10T06:56:53;101325.84;;;-1.24;84.08
70982;BME280;58640;51.320;9.456;2023-02-10T06:59:19;101324.97;;;-1.23;83.42
70982;BME280;58640;51.320;9.456;2023-02-10T07:01:44;101322.81;;;-1.37;84.45
70982;BME280;58640;51.320;9.456;2023-02-10T07:04:10;101319.31;;;-1.37;84.54
70982;BME280;58640;51.320;9.456;2023-02-10T07:06:35;101325.19;;;-1.29;84.22
70982;BME280;58640;51.320;9.456;2023-02-10T07:09:01;101328.09;;;-1.37;84.76
70982;BME280;58640;51.320;9.456;2023-02-10T07:11:29;101333.41;;;-1.38;84.60
70982;BME280;58640;51.320;9.456;2023-02-10T07:13:55;101335.94;;;-1.35;84.78
70982;BME280;58640;51.320;9.456;2023-02-10T07:16:21;101342.09;;;-1.35;84.53
70982;BME280;58640;51.320;9.456;2023-02-10T07:18:46;101339.41;;;-1.33;84.93
70982;BME280;58640;51.320;9.456;2023-02-10T07:21:11;101343.81;;;-1.34;84.93
70982;BME280;58640;51.320;9.456;2023-02-10T07:23:37;101346.13;;;-1.25;84.68
70982;BME280;58640;51.320;9.456;2023-02-10T07:26:04;101354.81;;;-1.21;84.45
70982;BME280;58640;51.320;9.456;2023-02-10T07:28:30;101360.44;;;-1.07;84.02
70982;BME280;58640;51.320;9.456;2023-02-10T07:30:55;101355.22;;;-1.09;83.45
70982;BME280;58640;51.320;9.456;2023-02-10T07:33:20;101362.34;;;-1.11;84.06
70982;BME280;58640;51.320;9.456;2023-02-10T07:35:46;101363.94;;;-1.07;84.10
70982;BME280;58640;51.320;9.456;2023-02-10T07:38:12;101359.91;;;-0.94;82.84
70982;BME280;58640;51.320;9.456;2023-02-10T07:40:37;101359.88;;;-0.92;83.27
70982;BME280;58640;51.320;9.456;2023-02-10T07:43:02;101361.84;;;-0.97;82.85
70982;BME280;58640;51.320;9.456;2023-02-10T07:45:28;101358.22;;;-0.95;83.46
70982;BME280;58640;51.320;9.456;2023-02-10T07:47:56;101373.59;;;-0.83;83.25
70982;BME280;58640;51.320;9.456;2023-02-10T07:50:22;101367.53;;;-0.85;83.73
70982;BME280;58640;51.320;9.456;2023-02-10T07:52:47;101364.69;;;-0.80;83.19
70982;BME280;58640;51.320;9.456;2023-02-10T07:55:13;101363.09;;;-0.84;83.95
70982;BME280;58640;51.320;9.456;2023-02-10T07:57:39;101369.13;;;-0.81;83.57
70982;BME280;58640;51.320;9.456;2023-02-10T08:00:06;101363.66;;;-0.76;83.41
70982;BME280;58640;51.320;9.456;2023-02-10T08:02:32;101368.81;;;-0.73;83.68
70982;BME280;58640;51.320;9.456;2023-02-10T08:04:57;101364.47;;;-0.74;83.56
70982;BME280;58640;51.320;9.456;2023-02-10T08:07:24;101372.78;;;-0.62;83.31
70982;BME280;58640;51.320;9.456;2023-02-10T08:09:49;101366.41;;;-0.35;82.14
70982;BME280;58640;51.320;9.456;2023-02-10T08:12:14;101369.81;;;-0.31;82.64
70982;BME280;58640;51.320;9.456;2023-02-10T08:14:40;101367.59;;;-0.20;81.54
70982;BME280;58640;51.320;9.456;2023-02-10T08:17:05;101377.84;;;-0.13;81.48
70982;BME280;58640;51.320;9.456;2023-02-10T08:19:30;101377.53;;;0.17;80.39
70982;BME280;58640;51.320;9.456;2023-02-10T08:21:57;101374.53;;;0.46;79.22
70982;BME280;58640;51.320;9.456;2023-02-10T08:24:22;101380.38;;;0.54;78.59
70982;BME280;58640;51.320;9.456;2023-02-10T08:26:47;101379.50;;;0.53;78.75
70982;BME280;58640;51.320;9.456;2023-02-10T08:29:13;101381.63;;;0.65;78.11
70982;BME280;58640;51.320;9.456;2023-02-10T08:31:38;101384.53;;;0.79;78.17
70982;BME280;58640;51.320;9.456;2023-02-10T08:34:04;101377.22;;;1.04;76.71
70982;BME280;58640;51.320;9.456;2023-02-10T08:36:29;101386.78;;;1.27;76.20
70982;BME280;58640;51.320;9.456;2023-02-10T08:38:56;101383.91;;;1.50;75.31
70982;BME280;58640;51.320;9.456;2023-02-10T08:41:21;101377.13;;;1.82;73.78
70982;BME280;58640;51.320;9.456;2023-02-10T08:43:47;101379.84;;;1.80;74.31
70982;BME280;58640;51.320;9.456;2023-02-10T08:46:12;101383.25;;;2.01;73.14
70982;BME280;58640;51.320;9.456;2023-02-10T08:48:38;101384.31;;;1.97;73.36
70982;BME280;58640;51.320;9.456;2023-02-10T08:51:09;101379.97;;;2.13;72.45
70982;BME280;58640;51.320;9.456;2023-02-10T08:53:35;101390.78;;;2.27;71.72
70982;BME280;58640;51.320;9.456;2023-02-10T08:56:08;101397.25;;;2.04;73.13
70982;BME280;58640;51.320;9.456;2023-02-10T08:58:34;101381.75;;;2.12;73.18
70982;BME280;58640;51.320;9.456;2023-02-10T09:00:59;101392.09;;;2.18;73.47
70982;BME280;58640;51.320;9.456;2023-02-10T09:03:25;101384.56;;;2.45;71.97
70982;BME280;58640;51.320;9.456;2023-02-10T09:05:52;101389.88;;;2.79;70.52
70982;BME280;58640;51.320;9.456;2023-02-10T09:08:18;101391.19;;;2.70;71.03
70982;BME280;58640;51.320;9.456;2023-02-10T09:10:45;101387.84;;;2.84;70.47
70982;BME280;58640;51.320;9.456;2023-02-10T09:13:11;101394.72;;;2.71;71.23
70982;BME280;58640;51.320;9.456;2023-02-10T09:15:37;101397.16;;;2.58;71.88
70982;BME280;58640;51.320;9.456;2023-02-10T09:18:04;101395.50;;;2.56;72.38
70982;BME280;58640;51.320;9.456;2023-02-10T09:20:29;101398.84;;;2.93;70.62
70982;BME280;58640;51.320;9.456;2023-02-10T09:22:54;101395.91;;;3.15;70.33
70982;BME280;58640;51.320;9.456;2023-02-10T09:25:20;101392.25;;;3.00;70.74
70982;BME280;58640;51.320;9.456;2023-02-10T09:27:47;101387.03;;;3.32;69.61
70982;BME280;58640;51.320;9.456;2023-02-10T09:30:12;101391.69;;;3.44;69.24
70982;BME280;58640;51.320;9.456;2023-02-10T09:32:38;101384.22;;;3.50;69.25
70982;BME280;58640;51.320;9.456;2023-02-10T09:35:03;101384.75;;;3.88;67.94
70982;BME280;58640;51.320;9.456;2023-02-10T09:37:28;101391.38;;;3.96;67.73
70982;BME280;58640;51.320;9.456;2023-02-10T09:39:54;101393.34;;;4.08;67.06
70982;BME280;58640;51.320;9.456;2023-02-10T09:42:21;101391.78;;;4.04;68.41
70982;BME280;58640;51.320;9.456;2023-02-10T09:45:05;101395.91;;;3.94;67.96
70982;BME280;58640;51.320;9.456;2023-02-10T09:47:51;101403.22;;;3.75;68.98
70982;BME280;58640;51.320;9.456;2023-02-10T09:50:39;101399.94;;;3.55;69.28
70982;BME280;58640;51.320;9.456;2023-02-10T09:53:19;101403.16;;;3.29;71.38
70982;BME280;58640;51.320;9.456;2023-02-10T09:55:47;101405.16;;;3.56;70.45
70982;BME280;58640;51.320;9.456;2023-02-10T09:58:21;101405.19;;;3.72;70.36
70982;BME280;58640;51.320;9.456;2023-02-10T10:00:54;101399.44;;;3.95;69.71
70982;BME280;58640;51.320;9.456;2023-02-10T10:03:34;101414.53;;;3.94;69.96
70982;BME280;58640;51.320;9.456;2023-02-10T10:09:30;101409.03;;;4.74;67.49
70982;BME280;58640;51.320;9.456;2023-02-10T10:11:52;101399.19;;;4.74;67.61
70982;BME280;58640;51.320;9.456;2023-02-10T10:14:36;101406.41;;;5.02;67.35
70982;BME280;58640;51.320;9.456;2023-02-10T10:17:11;101399.38;;;5.15;66.66
70982;BME280;58640;51.320;9.456;2023-02-10T10:22:29;101400.06;;;5.18;66.43
70982;BME280;58640;51.320;9.456;2023-02-10T10:30:17;101396.13;;;5.38;65.73
70982;BME280;58640;51.320;9.456;2023-02-10T10:32:45;101401.97;;;5.30;66.02
70982;BME280;58640;51.320;9.456;2023-02-10T10:35:26;101391.94;;;5.62;64.71
70982;BME280;58640;51.320;9.456;2023-02-10T10:37:54;101394.50;;;5.63;64.45
70982;BME280;58640;51.320;9.456;2023-02-10T10:40:25;101393.66;;;5.35;65.27
70982;BME280;58640;51.320;9.456;2023-02-10T10:42:55;101386.34;;;5.24;65.79
70982;BME280;58640;51.320;9.456;2023-02-10T10:45:31;101389.00;;;5.10;66.79
70982;BME280;58640;51.320;9.456;2023-02-10T10:48:05;101383.00;;;5.07;66.74
70982;BME280;58640;51.320;9.456;2023-02-10T10:50:33;101376.91;;;5.33;66.32
70982;BME280;58640;51.320;9.456;2023-02-10T10:53:01;101389.38;;;5.46;66.12
70982;BME280;58640;51.320;9.456;2023-02-10T10:55:35;101378.53;;;5.07;67.46
70982;BME280;58640;51.320;9.456;2023-02-10T10:58:21;101369.25;;;4.99;67.44
70982;BME280;58640;51.320;9.456;2023-02-10T11:00:52;101370.47;;;4.79;68.32
70982;BME280;58640;51.320;9.456;2023-02-10T11:03:18;101375.38;;;4.57;69.74
70982;BME280;58640;51.320;9.456;2023-02-10T11:08:55;101377.28;;;4.69;69.94
70982;BME280;58640;51.320;9.456;2023-02-10T11:11:38;101377.75;;;4.62;69.97
70982;BME280;58640;51.320;9.456;2023-02-10T11:14:24;101374.31;;;5.03;68.75
70982;BME280;58640;51.320;9.456;2023-02-10T11:16:53;101372.91;;;4.98;69.14
70982;BME280;58640;51.320;9.456;2023-02-10T11:19:22;101369.53;;;4.80;69.56
70982;BME280;58640;51.320;9.456;2023-02-10T11:21:48;101359.72;;;4.95;69.37
70982;BME280;58640;51.320;9.456;2023-02-10T11:24:23;101357.91;;;4.95;69.22
70982;BME280;58640;51.320;9.456;2023-02-10T11:29:20;101357.34;;;5.04;67.86
70982;BME280;58640;51.320;9.456;2023-02-10T11:31:45;101350.97;;;4.79;69.17
70982;BME280;58640;51.320;9.456;2023-02-10T11:36:52;101351.16;;;4.90;68.79
70982;BME280;58640;51.320;9.456;2023-02-10T11:39:35;101351.03;;;4.77;68.46
70982;BME280;58640;51.320;9.456;2023-02-10T11:42:11;101348.06;;;4.68;69.05
70982;BME280;58640;51.320;9.456;2023-02-10T11:44:41;101340.56;;;4.74;68.51
70982;BME280;58640;51.320;9.456;2023-02-10T11:47:14;101338.47;;;4.65;69.15
70982;BME280;58640;51.320;9.456;2023-02-10T11:49:49;101330.31;;;4.38;69.47
70982;BME280;58640;51.320;9.456;2023-02-10T11:52:19;101336.59;;;4.51;69.78
70982;BME280;58640;51.320;9.456;2023-02-10T11:54:47;101336.22;;;4.43;69.81
70982;BME280;58640;51.320;9.456;2023-02-10T12:03:32;101315.50;;;4.19;71.97
70982;BME280;58640;51.320;9.456;2023-02-10T12:12:06;101317.13;;;4.51;70.54
70982;BME280;58640;51.320;9.456;2023-02-10T12:17:35;101320.19;;;4.29;71.91
70982;BME280;58640;51.320;9.456;2023-02-10T12:20:21;101316.00;;;4.25;71.66
70982;BME280;58640;51.320;9.456;2023-02-10T12:25:56;101323.22;;;4.23;72.50
70982;BME280;58640;51.320;9.456;2023-02-10T12:31:46;101319.69;;;4.23;72.74
70982;BME280;58640;51.320;9.456;2023-02-10T12:37:16;101316.66;;;3.99;74.63
70982;BME280;58640;51.320;9.456;2023-02-10T12:42:57;101306.50;;;4.06;74.06
70982;BME280;58640;51.320;9.456;2023-02-10T12:53:24;101295.28;;;4.15;74.01
70982;BME280;58640;51.320;9.456;2023-02-10T12:55:56;101291.63;;;4.17;74.03
70982;BME280;58640;51.320;9.456;2023-02-10T12:58:42;101288.50;;;4.25;73.46
70982;BME280;58640;51.320;9.456;2023-02-10T13:03:45;101299.00;;;4.12;73.80
70982;BME280;58640;51.320;9.456;2023-02-10T13:06:18;101292.72;;;3.84;75.01
70982;BME280;58640;51.320;9.456;2023-02-10T13:08:53;101286.16;;;3.89;74.65
70982;BME280;58640;51.320;9.456;2023-02-10T13:11:32;101290.47;;;3.92;74.69
70982;BME280;58640;51.320;9.456;2023-02-10T13:14:04;101289.44;;;3.94;74.32
70982;BME280;58640;51.320;9.456;2023-02-10T13:16:32;101298.66;;;3.89;74.61
70982;BME280;58640;51.320;9.456;2023-02-10T13:19:20;101288.38;;;4.12;73.37
70982;BME280;58640;51.320;9.456;2023-02-10T13:22:02;101295.84;;;4.06;74.00
70982;BME280;58640;51.320;9.456;2023-02-10T13:24:38;101298.34;;;4.09;73.50
70982;BME280;58640;51.320;9.456;2023-02-10T13:27:37;101287.41;;;4.13;73.88
70982;BME280;58640;51.320;9.456;2023-02-10T13:33:36;101286.91;;;4.36;72.81
70982;BME280;58640;51.320;9.456;2023-02-10T13:36:11;101282.47;;;4.21;73.29
70982;BME280;58640;51.320;9.456;2023-02-10T13:38:39;101278.44;;;4.30;73.37
70982;BME280;58640;51.320;9.456;2023-02-10T13:41:04;101285.22;;;4.35;73.05
70982;BME280;58640;51.320;9.456;2023-02-10T13:43:55;101279.03;;;4.49;72.88
70982;BME280;58640;51.320;9.456;2023-02-10T13:46:27;101277.25;;;4.49;72.87
70982;BME280;58640;51.320;9.456;2023-02-10T13:48:55;101272.50;;;4.55;72.98
70982;BME280;58640;51.320;9.456;2023-02-10T13:51:32;101274.09;;;4.57;73.12
70982;BME280;58640;51.320;9.456;2023-02-10T13:53:58;101274.00;;;4.59;73.03
70982;BME280;58640;51.320;9.456;2023-02-10T13:56:27;101269.06;;;4.67;72.42
70982;BME280;58640;51.320;9.456;2023-02-10T13:59:23;101267.84;;;4.72;71.86
70982;BME280;58640;51.320;9.456;2023-02-10T14:02:14;101265.09;;;4.74;71.31
70982;BME280;58640;51.320;9.456;2023-02-10T14:07:32;101252.59;;;4.60;72.35
70982;BME280;58640;51.320;9.456;2023-02-10T14:12:28;101249.63;;;4.65;72.05
70982;BME280;58640;51.320;9.456;2023-02-10T14:14:54;101239.34;;;4.73;71.61
70982;BME280;58640;51.320;9.456;2023-02-10T14:17:25;101239.16;;;4.62;72.19
70982;BME280;58640;51.320;9.456;2023-02-10T14:19:57;101239.06;;;4.49;72.86
70982;BME280;58640;51.320;9.456;2023-02-10T14:22:26;101240.31;;;4.58;72.96
70982;BME280;58640;51.320;9.456;2023-02-10T14:24:59;101243.09;;;4.70;72.24
70982;BME280;58640;51.320;9.456;2023-02-10T14:27:26;101242.22;;;4.56;72.99
70982;BME280;58640;51.320;9.456;2023-02-10T14:29:53;101238.09;;;4.50;72.94
70982;BME280;58640;51.320;9.456;2023-02-10T14:32:20;101236.59;;;4.60;72.24
70982;BME280;58640;51.320;9.456;2023-02-10T14:34:55;101238.59;;;4.57;72.49